Time;durP1;ratioP1;P1;durP2;ratioP2;P2;SDS_P1;SDS_P2;PMS_P1;PMS_P2;Temp;Humidity;BMP_temperature;BMP_pressure;BME280_temperature;BME280_humidity;BME280_pressure;Samples;Min_cycle;Max_cycle;Signal;HPM_P1;HPM_P2
2023/08/28 00:02:23;;;;;;;;;;;;;;;;;;5071119;28;20674;-64
2023/08/28 00:04:49;;;;;;;;;;;;;;;;;;5053067;28;19935;-63
2023/08/28 00:07:15;;;;;;;;;;;;;;;;;;5068951;28;19924;-63
2023/08/28 00:09:40;;;;;;;;;;;;;;;;;;5053894;28;19928;-63
2023/08/28 00:12:07;;;;;;;;;;;;;;;;;;5071785;28;19974;-63
2023/08/28 00:14:32;;;;;;;;;;;;;;;;;;5070614;28;19935;-63
2023/08/28 00:16:58;;;;;;;;;;;;;;;;;;5067677;28;19924;-63
2023/08/28 00:19:24;;;;;;;;;;;;;;;;;;5069123;28;19982;-64
2023/08/28 00:21:50;;;;;;;;;;;;;;;;;;5052983;28;19929;-63
2023/08/28 00:24:16;;;;;;;;;;;;;;;;;;5050173;28;19928;-64
2023/08/28 00:26:42;;;;;;;;;;;;;;;;;;5070073;28;19928;-64
2023/08/28 00:29:08;;;;;;;;;;;;;;;;;;5071106;28;19965;-63
2023/08/28 00:31:34;;;;;;;;;;;;;;;;;;5068641;28;19928;-63
2023/08/28 00:34:00;;;;;;;;;;;;;;;;;;5069698;28;19936;-63
2023/08/28 00:36:25;;;;;;;;;;;;;;;;;;5070735;28;19927;-63
2023/08/28 00:38:51;;;;;;;;;;;;;;;;;;5070992;28;19967;-63
2023/08/28 00:41:17;;;;;;;;;;;;;;;;;;5070297;28;19921;-63
2023/08/28 00:43:43;;;;;;;;;;;;;;;;;;5050284;28;20313;-63
2023/08/28 00:46:09;;;;;;;;;;;;;;;;;;5067502;28;19931;-63
2023/08/28 00:48:35;;;;;;;;;;;;;;;;;;5050505;28;20370;-64
2023/08/28 00:51:01;;;;;;;;;;;;;;;;;;5066266;28;19970;-63
2023/08/28 00:53:27;;;;;;;;;;;;;;;;;;5050028;28;20019;-63
2023/08/28 00:55:53;;;;;;;;;;;;;;;;;;5066521;28;20007;-63
2023/08/28 00:58:19;;;;;;;;;;;;;;;;;;5069200;28;19920;-64
2023/08/28 01:00:44;;;;;;;;;;;;;;;;;;5066079;28;20113;-63
2023/08/28 01:03:10;;;;;;;;;;;;;;;;;;5067863;28;19981;-63
2023/08/28 01:05:36;;;;;;;;;;;;;;;;;;5069638;28;19932;-63
2023/08/28 01:08:02;;;;;;;;;;;;;;;;;;5069312;28;19931;-63
2023/08/28 01:10:28;;;;;;;;;;;;;;;;;;5069104;28;20670;-62
2023/08/28 01:12:54;;;;;;;;;;;;;;;;;;5070368;28;19924;-63
2023/08/28 01:15:20;;;;;;;;;;;;;;;;;;5066342;28;19928;-63
2023/08/28 01:17:46;;;;;;;;;;;;;;;;;;5068670;28;19925;-63
2023/08/28 01:20:12;;;;;;;;;;;;;;;;;;5069507;28;19931;-63
2023/08/28 01:22:38;;;;;;;;;;;;;;;;;;5078005;22;19936;-60
2023/08/28 01:25:04;;;;;;;;;;;;;;;;;;5047080;28;19924;-60
2023/08/28 01:27:30;;;;;;;;;;;;;;;;;;5033865;28;19920;-60
2023/08/28 01:29:56;;;;;;;;;;;;;;;;;;5048130;28;19936;-60
2023/08/28 01:32:22;;;;;;;;;;;;;;;;;;5050095;28;20393;-60
2023/08/28 01:34:48;;;;;;;;;;;;;;;;;;5051000;28;19928;-60
2023/08/28 01:37:14;;;;;;;;;;;;;;;;;;5051412;28;19925;-60
2023/08/28 01:39:40;;;;;;;;;;;;;;;;;;5052646;28;20355;-60
2023/08/28 01:42:06;;;;;;;;;;;;;;;;;;5052563;28;19921;-60
2023/08/28 01:44:32;;;;;;;;;;;;;;;;;;5051849;28;20015;-60
2023/08/28 01:46:58;;;;;;;;;;;;;;;;;;5051122;28;19925;-60
2023/08/28 01:49:24;;;;;;;;;;;;;;;;;;5051467;28;20007;-60
2023/08/28 01:51:50;;;;;;;;;;;;;;;;;;5048608;28;20353;-60
2023/08/28 01:54:16;;;;;;;;;;;;;;;;;;5050892;28;19947;-60
2023/08/28 01:56:41;;;;;;;;;;;;;;;;;;5033823;28;19924;-60
2023/08/28 01:59:07;;;;;;;;;;;;;;;;;;5053739;28;20019;-60
2023/08/28 02:01:34;;;;;;;;;;;;;;;;;;5052603;28;19928;-60
2023/08/28 02:04:00;;;;;;;;;;;;;;;;;;5052588;28;19990;-60
2023/08/28 02:06:26;;;;;;;;;;;;;;;;;;5052407;28;20461;-60
2023/08/28 02:08:52;;;;;;;;;;;;;;;;;;5052740;28;19995;-60
2023/08/28 02:11:18;;;;;;;;;;;;;;;;;;5050504;28;19927;-60
2023/08/28 02:13:44;;;;;;;;;;;;;;;;;;5051404;28;19925;-60
2023/08/28 02:16:10;;;;;;;;;;;;;;;;;;5052274;28;20405;-60
2023/08/28 02:18:36;;;;;;;;;;;;;;;;;;5051794;28;19943;-60
2023/08/28 02:21:02;;;;;;;;;;;;;;;;;;5053011;28;20409;-60
2023/08/28 02:23:28;;;;;;;;;;;;;;;;;;5052071;28;19928;-60
2023/08/28 02:25:54;;;;;;;;;;;;;;;;;;5032333;28;20057;-60
2023/08/28 02:28:20;;;;;;;;;;;;;;;;;;5049326;28;20003;-60
2023/08/28 02:30:46;;;;;;;;;;;;;;;;;;5052346;28;19932;-60
2023/08/28 02:33:12;;;;;;;;;;;;;;;;;;5052146;28;19921;-60
2023/08/28 02:35:38;;;;;;;;;;;;;;;;;;5052632;28;20274;-60
2023/08/28 02:38:08;;;;;;;;;;;;;;;;;;5052961;28;20013;-60
2023/08/28 02:40:34;;;;;;;;;;;;;;;;;;5052744;28;19947;-60
2023/08/28 02:43:05;;;;;;;;;;;;;;;;;;5051094;28;20366;-60
2023/08/28 02:45:31;;;;;;;;;;;;;;;;;;5052022;28;20018;-60
2023/08/28 02:47:57;;;;;;;;;;;;;;;;;;5051837;28;20006;-60
2023/08/28 02:50:23;;;;;;;;;;;;;;;;;;5052615;28;20337;-60
2023/08/28 02:52:48;;;;;;;;;;;;;;;;;;5052559;28;20009;-60
2023/08/28 02:55:14;;;;;;;;;;;;;;;;;;5052113;28;19921;-60
2023/08/28 02:57:40;;;;;;;;;;;;;;;;;;5052180;28;20002;-60
2023/08/28 03:00:06;;;;;;;;;;;;;;;;;;5050330;28;19971;-60
2023/08/28 03:02:32;;;;;;;;;;;;;;;;;;5052918;28;19927;-60
2023/08/28 03:04:58;;;;;;;;;;;;;;;;;;5052261;28;20008;-60
2023/08/28 03:07:24;;;;;;;;;;;;;;;;;;5050976;28;19925;-60
2023/08/28 03:09:50;;;;;;;;;;;;;;;;;;5051954;28;19931;-60
2023/08/28 03:12:16;;;;;;;;;;;;;;;;;;5052248;28;19921;-60
2023/08/28 03:14:41;;;;;;;;;;;;;;;;;;5050303;28;19982;-60
2023/08/28 03:17:07;;;;;;;;;;;;;;;;;;5051394;28;19921;-60
2023/08/28 03:19:34;;;;;;;;;;;;;;;;;;5051659;28;19982;-60
2023/08/28 03:22:00;;;;;;;;;;;;;;;;;;5052086;28;19925;-60
2023/08/28 03:24:25;;;;;;;;;;;;;;;;;;5050568;28;20892;-60
2023/08/28 03:26:51;;;;;;;;;;;;;;;;;;5050198;28;19929;-60
2023/08/28 03:29:17;;;;;;;;;;;;;;;;;;5050779;28;20316;-60
2023/08/28 03:31:43;;;;;;;;;;;;;;;;;;5049863;28;19925;-59
2023/08/28 03:34:09;;;;;;;;;;;;;;;;;;5049545;28;19932;-59
2023/08/28 03:36:35;;;;;;;;;;;;;;;;;;5052308;28;20010;-60
2023/08/28 03:39:02;;;;;;;;;;;;;;;;;;5050233;28;19936;-60
2023/08/28 03:41:28;;;;;;;;;;;;;;;;;;5051386;28;19921;-60
2023/08/28 03:43:54;;;;;;;;;;;;;;;;;;5051145;28;20305;-60
2023/08/28 03:46:20;;;;;;;;;;;;;;;;;;5049277;28;20012;-60
2023/08/28 03:48:45;;;;;;;;;;;;;;;;;;5033527;28;19974;-60
2023/08/28 03:51:11;;;;;;;;;;;;;;;;;;5050558;28;19943;-60
2023/08/28 03:53:37;;;;;;;;;;;;;;;;;;5051773;28;20378;-60
2023/08/28 03:56:03;;;;;;;;;;;;;;;;;;5033306;28;19935;-60
2023/08/28 03:58:29;;;;;;;;;;;;;;;;;;5030747;28;20468;-60
2023/08/28 04:00:55;;;;;;;;;;;;;;;;;;5051084;28;19976;-60
2023/08/28 04:03:21;;;;;;;;;;;;;;;;;;5052195;28;19970;-60
2023/08/28 04:05:48;;;;;;;;;;;;;;;;;;5052004;28;20281;-60
2023/08/28 04:08:14;;;;;;;;;;;;;;;;;;5052137;28;19959;-60
2023/08/28 04:10:40;;;;;;;;;;;;;;;;;;5051745;28;20414;-60
2023/08/28 04:13:08;;;;;;;;;;;;;;;;;;5052115;28;19935;-60
2023/08/28 04:15:34;;;;;;;;;;;;;;;;;;5052082;28;19979;-60
2023/08/28 04:18:00;;;;;;;;;;;;;;;;;;5051964;28;19924;-60
2023/08/28 04:20:26;;;;;;;;;;;;;;;;;;5051974;28;20020;-60
2023/08/28 04:22:51;;;;;;;;;;;;;;;;;;5051812;28;20088;-60
2023/08/28 04:25:17;;;;;;;;;;;;;;;;;;5051566;28;19925;-60
2023/08/28 04:27:43;;;;;;;;;;;;;;;;;;5033795;28;19925;-60
2023/08/28 04:30:09;;;;;;;;;;;;;;;;;;5051868;28;19975;-60
2023/08/28 04:32:35;;;;;;;;;;;;;;;;;;5033690;28;19932;-60
2023/08/28 04:35:01;;;;;;;;;;;;;;;;;;5033617;28;20290;-60
2023/08/28 04:37:27;;;;;;;;;;;;;;;;;;5032526;28;19921;-60
2023/08/28 04:39:53;;;;;;;;;;;;;;;;;;5043688;28;20015;-60
2023/08/28 04:42:19;;;;;;;;;;;;;;;;;;5050126;28;19932;-60
2023/08/28 04:44:45;;;;;;;;;;;;;;;;;;5048691;28;19952;-60
2023/08/28 04:47:12;;;;;;;;;;;;;;;;;;5050095;28;20557;-60
2023/08/28 04:49:38;;;;;;;;;;;;;;;;;;5049998;28;19998;-60
2023/08/28 04:52:04;;;;;;;;;;;;;;;;;;5051012;28;19920;-60
2023/08/28 04:54:30;;;;;;;;;;;;;;;;;;5051599;28;19921;-60
2023/08/28 04:56:56;;;;;;;;;;;;;;;;;;5051232;28;19947;-60
2023/08/28 04:59:22;;;;;;;;;;;;;;;;;;5033321;28;19944;-60
2023/08/28 05:01:47;;;;;;;;;;;;;;;;;;5051301;28;19933;-61
2023/08/28 05:04:13;;;;;;;;;;;;;;;;;;5051646;28;19931;-60
2023/08/28 05:06:39;;;;;;;;;;;;;;;;;;5055241;28;20270;-61
2023/08/28 05:09:05;;;;;;;;;;;;;;;;;;5055347;28;19960;-60
2023/08/28 05:11:31;;;;;;;;;;;;;;;;;;5055074;28;19951;-61
2023/08/28 05:13:57;;;;;;;;;;;;;;;;;;5055283;28;19921;-60
2023/08/28 05:16:23;;;;;;;;;;;;;;;;;;5054924;28;19929;-61
2023/08/28 05:18:49;;;;;;;;;;;;;;;;;;5054903;28;19967;-60
2023/08/28 05:21:15;;;;;;;;;;;;;;;;;;5055165;28;19960;-60
2023/08/28 05:23:41;;;;;;;;;;;;;;;;;;5055706;28;19925;-60
2023/08/28 05:26:07;;;;;;;;;;;;;;;;;;5062214;28;20400;-61
2023/08/28 05:28:35;;;;;;;;;;;;;;;;;;5047041;28;19932;-60
2023/08/28 05:31:01;;;;;;;;;;;;;;;;;;5034831;28;19922;-60
2023/08/28 05:33:27;;;;;;;;;;;;;;;;;;5049636;28;20282;-61
2023/08/28 05:35:53;;;;;;;;;;;;;;;;;;5054640;28;19955;-61
2023/08/28 05:38:19;;;;;;;;;;;;;;;;;;5054683;28;19924;-61
2023/08/28 05:40:45;;;;;;;;;;;;;;;;;;5054697;28;19920;-60
2023/08/28 05:43:11;;;;;;;;;;;;;;;;;;5054690;28;19921;-60
2023/08/28 05:45:37;;;;;;;;;;;;;;;;;;5043658;28;20410;-61
2023/08/28 05:48:03;;;;;;;;;;;;;;;;;;5054567;28;19977;-61
2023/08/28 05:50:29;;;;;;;;;;;;;;;;;;5054465;28;20454;-61
2023/08/28 05:52:55;;;;;;;;;;;;;;;;;;5036184;28;19928;-61
2023/08/28 05:55:20;;;;;;;;;;;;;;;;;;5054264;28;19924;-61
2023/08/28 05:57:46;;;;;;;;;;;;;;;;;;5050823;28;20270;-61
2023/08/28 06:00:15;;;;;;;;;;;;;;;;;;5051848;28;19939;-61
2023/08/28 06:02:41;;;;;;;;;;;;;;;;;;5051570;28;20358;-61
2023/08/28 06:05:07;;;;;;;;;;;;;;;;;;5053070;28;20011;-61
2023/08/28 06:07:33;;;;;;;;;;;;;;;;;;5035891;28;20430;-61
2023/08/28 06:09:59;;;;;;;;;;;;;;;;;;5053945;28;20065;-61
2023/08/28 06:12:25;;;;;;;;;;;;;;;;;;5054329;28;19920;-61
2023/08/28 06:14:51;;;;;;;;;;;;;;;;;;5050745;28;19997;-61
2023/08/28 06:17:17;;;;;;;;;;;;;;;;;;5062276;28;19920;-61
2023/08/28 06:19:43;;;;;;;;;;;;;;;;;;5049705;28;19924;-61
2023/08/28 06:22:09;;;;;;;;;;;;;;;;;;5049358;28;20414;-61
2023/08/28 06:24:34;;;;;;;;;;;;;;;;;;5045271;28;19932;-61
2023/08/28 06:27:00;;;;;;;;;;;;;;;;;;5051779;28;19998;-61
2023/08/28 06:29:26;;;;;;;;;;;;;;;;;;5053697;28;19924;-61
2023/08/28 06:31:52;;;;;;;;;;;;;;;;;;5052134;28;19921;-61
2023/08/28 06:34:19;;;;;;;;;;;;;;;;;;5051241;28;19936;-61
2023/08/28 06:36:45;;;;;;;;;;;;;;;;;;5053089;28;19928;-61
2023/08/28 06:39:11;;;;;;;;;;;;;;;;;;5052578;28;19963;-61
2023/08/28 06:41:37;;;;;;;;;;;;;;;;;;5052889;28;19921;-62
2023/08/28 06:44:04;;;;;;;;;;;;;;;;;;5051744;28;20023;-61
2023/08/28 06:46:30;;;;;;;;;;;;;;;;;;5051491;28;19929;-62
2023/08/28 06:48:56;;;;;;;;;;;;;;;;;;5049557;28;19925;-61
2023/08/28 06:51:22;;;;;;;;;;;;;;;;;;5049288;28;20338;-62
2023/08/28 06:53:51;;;;;;;;;;;;;;;;;;5048042;28;19925;-61
2023/08/28 06:56:17;;;;;;;;;;;;;;;;;;5043097;28;20621;-62
2023/08/28 06:58:42;;;;;;;;;;;;;;;;;;5045849;28;19929;-62
2023/08/28 07:01:08;;;;;;;;;;;;;;;;;;5049872;28;20547;-62
2023/08/28 07:03:35;;;;;;;;;;;;;;;;;;5046790;28;19947;-60
2023/08/28 07:06:00;;;;;;;;;;;;;;;;;;5046036;28;19974;-60
2023/08/28 07:08:26;;;;;;;;;;;;;;;;;;5048049;28;20405;-60
2023/08/28 07:10:52;;;;;;;;;;;;;;;;;;5043299;28;19921;-61
2023/08/28 07:13:18;;;;;;;;;;;;;;;;;;5030874;28;19938;-60
2023/08/28 07:15:44;;;;;;;;;;;;;;;;;;5030164;28;20051;-60
2023/08/28 07:18:12;;;;;;;;;;;;;;;;;;5036111;28;19925;-60
2023/08/28 07:20:38;;;;;;;;;;;;;;;;;;5032586;28;19924;-60
2023/08/28 07:23:04;;;;;;;;;;;;;;;;;;5058205;22;19975;-60
2023/08/28 07:25:31;;;;;;;;;;;;;;;;;;5067575;28;19976;-60
2023/08/28 07:27:57;;;;;;;;;;;;;;;;;;5067697;28;19942;-60
2023/08/28 07:30:23;;;;;;;;;;;;;;;;;;5070323;28;19974;-60
2023/08/28 07:32:48;;;;;;;;;;;;;;;;;;5070058;28;20623;-60
2023/08/28 07:35:14;;;;;;;;;;;;;;;;;;5060958;28;19928;-60
2023/08/28 07:37:40;;;;;;;;;;;;;;;;;;5063105;28;19925;-60
2023/08/28 07:40:06;;;;;;;;;;;;;;;;;;5063438;28;20281;-59
2023/08/28 07:42:32;;;;;;;;;;;;;;;;;;5052507;28;19920;-60
2023/08/28 07:44:58;;;;;;;;;;;;;;;;;;5069532;28;20442;-60
2023/08/28 07:47:24;;;;;;;;;;;;;;;;;;5050419;28;19924;-60
2023/08/28 07:49:50;;;;;;;;;;;;;;;;;;5070093;28;19924;-60
2023/08/28 07:52:16;;;;;;;;;;;;;;;;;;5068295;28;19928;-60
2023/08/28 07:54:42;;;;;;;;;;;;;;;;;;5070993;28;20396;-60
2023/08/28 07:57:08;;;;;;;;;;;;;;;;;;5067643;28;19920;-60
2023/08/28 07:59:34;;;;;;;;;;;;;;;;;;5069901;28;20309;-59
2023/08/28 08:02:00;;;;;;;;;;;;;;;;;;5067611;28;20007;-60
2023/08/28 08:04:25;;;;;;;;;;;;;;;;;;5063316;28;19925;-59
2023/08/28 08:06:51;;;;;;;;;;;;;;;;;;5061665;28;20019;-60
2023/08/28 08:09:17;;;;;;;;;;;;;;;;;;5067898;28;19921;-60
2023/08/28 08:11:43;;;;;;;;;;;;;;;;;;5070990;28;19924;-59
2023/08/28 08:14:09;;;;;;;;;;;;;;;;;;5070728;28;19925;-60
2023/08/28 08:16:35;;;;;;;;;;;;;;;;;;5062095;28;20001;-60
2023/08/28 08:19:01;;;;;;;;;;;;;;;;;;5068536;28;20378;-60
2023/08/28 08:21:27;;;;;;;;;;;;;;;;;;5070681;28;19927;-60
2023/08/28 08:23:52;;;;;;;;;;;;;;;;;;5071671;28;19935;-60
2023/08/28 08:26:18;;;;;;;;;;;;;;;;;;5068713;28;20355;-60
2023/08/28 08:28:44;;;;;;;;;;;;;;;;;;5068317;28;19931;-60
2023/08/28 08:31:10;;;;;;;;;;;;;;;;;;5069516;28;20332;-60
2023/08/28 08:33:38;;;;;;;;;;;;;;;;;;5071391;28;20003;-60
2023/08/28 08:36:04;;;;;;;;;;;;;;;;;;5068940;28;19959;-60
2023/08/28 08:38:29;;;;;;;;;;;;;;;;;;5070099;28;20389;-60
2023/08/28 08:40:55;;;;;;;;;;;;;;;;;;5066650;28;19920;-60
2023/08/28 08:43:21;;;;;;;;;;;;;;;;;;5039668;28;19921;-60
2023/08/28 08:45:47;;;;;;;;;;;;;;;;;;5063679;28;20404;-60
2023/08/28 08:48:13;;;;;;;;;;;;;;;;;;5072767;28;19931;-60
2023/08/28 08:50:39;;;;;;;;;;;;;;;;;;5074349;28;19920;-60
2023/08/28 08:53:05;;;;;;;;;;;;;;;;;;5071703;28;20267;-60
2023/08/28 08:55:31;;;;;;;;;;;;;;;;;;5070504;28;19920;-60
2023/08/28 08:57:57;;;;;;;;;;;;;;;;;;5071219;28;19924;-60
2023/08/28 09:00:23;;;;;;;;;;;;;;;;;;5065682;28;19982;-60
2023/08/28 09:02:49;;;;;;;;;;;;;;;;;;5072681;28;19920;-61
2023/08/28 09:05:15;;;;;;;;;;;;;;;;;;5051023;28;20671;-61
2023/08/28 09:07:40;;;;;;;;;;;;;;;;;;5063860;28;19928;-60
2023/08/28 09:10:07;;;;;;;;;;;;;;;;;;5072747;28;19943;-61
2023/08/28 09:12:33;;;;;;;;;;;;;;;;;;5070775;28;20463;-61
2023/08/28 09:14:59;;;;;;;;;;;;;;;;;;5072655;28;19928;-61
2023/08/28 09:17:26;;;;;;;;;;;;;;;;;;5058226;28;19944;-61
2023/08/28 09:19:53;;;;;;;;;;;;;;;;;;5074088;28;19975;-61
2023/08/28 09:22:19;;;;;;;;;;;;;;;;;;5073455;28;19924;-61
2023/08/28 09:24:45;;;;;;;;;;;;;;;;;;5073383;28;19977;-61
2023/08/28 09:27:10;;;;;;;;;;;;;;;;;;5071204;28;20409;-60
2023/08/28 09:29:36;;;;;;;;;;;;;;;;;;5063936;28;19925;-61
2023/08/28 09:32:05;;;;;;;;;;;;;;;;;;5073529;28;19955;-61
2023/08/28 09:34:31;;;;;;;;;;;;;;;;;;5069070;28;19921;-60
2023/08/28 09:36:57;;;;;;;;;;;;;;;;;;5069985;28;19947;-61
2023/08/28 09:39:23;;;;;;;;;;;;;;;;;;5054119;28;19964;-61
2023/08/28 09:41:49;;;;;;;;;;;;;;;;;;5069620;28;20047;-61
2023/08/28 09:44:15;;;;;;;;;;;;;;;;;;5068415;28;20450;-60
2023/08/28 09:46:41;;;;;;;;;;;;;;;;;;5072488;28;19928;-60
2023/08/28 09:49:07;;;;;;;;;;;;;;;;;;5066520;28;20366;-60
2023/08/28 09:51:34;;;;;;;;;;;;;;;;;;5064698;28;19931;-61
2023/08/28 09:54:00;;;;;;;;;;;;;;;;;;5035946;28;19947;-60
2023/08/28 09:56:26;;;;;;;;;;;;;;;;;;5064901;28;19963;-61
2023/08/28 09:58:52;;;;;;;;;;;;;;;;;;5071763;28;19920;-60
2023/08/28 10:01:18;;;;;;;;;;;;;;;;;;5062695;28;19978;-61
2023/08/28 10:03:44;;;;;;;;;;;;;;;;;;5047840;28;20010;-61
2023/08/28 10:06:10;;;;;;;;;;;;;;;;;;5069837;28;19924;-61
2023/08/28 10:08:36;;;;;;;;;;;;;;;;;;5071468;28;19920;-61
2023/08/28 10:11:02;;;;;;;;;;;;;;;;;;5067390;28;20384;-61
2023/08/28 10:13:27;;;;;;;;;;;;;;;;;;5068021;28;20027;-61
2023/08/28 10:15:53;;;;;;;;;;;;;;;;;;5072085;28;20025;-61
2023/08/28 10:18:19;;;;;;;;;;;;;;;;;;5068212;28;19921;-61
2023/08/28 10:20:45;;;;;;;;;;;;;;;;;;5056867;28;19938;-61
2023/08/28 10:23:11;;;;;;;;;;;;;;;;;;5066438;28;19932;-60
2023/08/28 10:25:37;;;;;;;;;;;;;;;;;;5071134;28;19935;-60
2023/08/28 10:28:03;;;;;;;;;;;;;;;;;;5064638;28;20028;-60
2023/08/28 10:30:29;;;;;;;;;;;;;;;;;;5060356;28;20360;-61
2023/08/28 10:32:55;;;;;;;;;;;;;;;;;;5069637;28;20014;-60
2023/08/28 10:35:21;;;;;;;;;;;;;;;;;;5052638;28;20007;-60
2023/08/28 10:37:47;;;;;;;;;;;;;;;;;;5070808;28;19946;-61
2023/08/28 10:40:13;;;;;;;;;;;;;;;;;;5070007;28;19952;-61
2023/08/28 10:42:38;;;;;;;;;;;;;;;;;;5059231;28;20401;-61
2023/08/28 10:45:04;;;;;;;;;;;;;;;;;;5070552;28;20011;-61
2023/08/28 10:47:30;;;;;;;;;;;;;;;;;;5072788;28;19920;-61
2023/08/28 10:49:56;;;;;;;;;;;;;;;;;;5070454;28;19977;-61
2023/08/28 10:52:23;;;;;;;;;;;;;;;;;;5059787;28;19928;-61
2023/08/28 10:54:50;;;;;;;;;;;;;;;;;;5070426;28;19926;-61
2023/08/28 10:57:16;;;;;;;;;;;;;;;;;;5068654;28;19987;-61
2023/08/28 10:59:43;;;;;;;;;;;;;;;;;;5070433;28;19982;-61
2023/08/28 11:02:09;;;;;;;;;;;;;;;;;;5069300;28;19996;-61
2023/08/28 11:04:39;;;;;;;;;;;;;;;;;;5071530;28;19971;-60
2023/08/28 11:07:06;;;;;;;;;;;;;;;;;;5065823;28;19986;-60
2023/08/28 11:09:34;;;;;;;;;;;;;;;;;;5051150;28;21289;-61
2023/08/28 11:12:00;;;;;;;;;;;;;;;;;;5067852;28;20366;-61
2023/08/28 11:14:26;;;;;;;;;;;;;;;;;;5070559;28;19924;-61
2023/08/28 11:16:52;;;;;;;;;;;;;;;;;;5071086;28;19959;-60
2023/08/28 11:19:18;;;;;;;;;;;;;;;;;;5070704;28;20011;-61
2023/08/28 11:21:43;;;;;;;;;;;;;;;;;;5054564;28;19927;-61
2023/08/28 11:24:09;;;;;;;;;;;;;;;;;;5048727;28;19929;-61
2023/08/28 11:26:35;;;;;;;;;;;;;;;;;;5050260;28;20565;-61
2023/08/28 11:29:04;;;;;;;;;;;;;;;;;;5051810;28;19921;-61
2023/08/28 11:31:33;;;;;;;;;;;;;;;;;;5050146;28;19921;-61
2023/08/28 11:33:59;;;;;;;;;;;;;;;;;;5050459;28;19924;-61
2023/08/28 11:36:25;;;;;;;;;;;;;;;;;;5048496;28;20372;-61
2023/08/28 11:38:51;;;;;;;;;;;;;;;;;;5049123;28;19974;-61
2023/08/28 11:41:17;;;;;;;;;;;;;;;;;;5049654;28;20552;-61
2023/08/28 11:43:43;;;;;;;;;;;;;;;;;;5045517;28;19932;-61
2023/08/28 11:46:09;;;;;;;;;;;;;;;;;;5035255;28;19968;-61
2023/08/28 11:48:35;;;;;;;;;;;;;;;;;;5050050;28;19951;-61
2023/08/28 11:51:01;;;;;;;;;;;;;;;;;;5049083;28;19921;-61
2023/08/28 11:53:27;;;;;;;;;;;;;;;;;;5052068;28;19925;-61
2023/08/28 11:55:53;;;;;;;;;;;;;;;;;;5045737;28;20317;-61
2023/08/28 11:58:18;;;;;;;;;;;;;;;;;;5049184;28;19928;-61
2023/08/28 12:00:44;;;;;;;;;;;;;;;;;;5038114;28;19936;-61
2023/08/28 12:03:10;;;;;;;;;;;;;;;;;;5024993;28;20289;-62
2023/08/28 12:05:36;;;;;;;;;;;;;;;;;;5021608;28;20039;-62
2023/08/28 12:08:02;;;;;;;;;;;;;;;;;;5042647;28;20492;-62
2023/08/28 12:10:28;;;;;;;;;;;;;;;;;;5044793;28;19921;-62
2023/08/28 12:12:54;;;;;;;;;;;;;;;;;;5044187;28;19973;-62
2023/08/28 12:15:20;;;;;;;;;;;;;;;;;;5037389;28;20020;-62
2023/08/28 12:17:48;;;;;;;;;;;;;;;;;;5040154;28;20011;-62
2023/08/28 12:20:14;;;;;;;;;;;;;;;;;;5049784;28;20281;-62
2023/08/28 12:22:40;;;;;;;;;;;;;;;;;;5049982;28;19929;-62
2023/08/28 12:25:06;;;;;;;;;;;;;;;;;;5069110;28;19935;-62
2023/08/28 12:27:32;;;;;;;;;;;;;;;;;;5058555;28;19924;-62
2023/08/28 12:29:58;;;;;;;;;;;;;;;;;;5048947;28;20313;-62
2023/08/28 12:32:25;;;;;;;;;;;;;;;;;;5036512;28;19924;-62
2023/08/28 12:34:51;;;;;;;;;;;;;;;;;;5041315;28;19928;-62
2023/08/28 12:37:17;;;;;;;;;;;;;;;;;;5042050;28;19924;-62
2023/08/28 12:39:43;;;;;;;;;;;;;;;;;;5039931;28;20141;-62
2023/08/28 12:42:09;;;;;;;;;;;;;;;;;;5059246;28;20373;-62
2023/08/28 12:44:35;;;;;;;;;;;;;;;;;;5057932;28;19969;-62
2023/08/28 12:47:02;;;;;;;;;;;;;;;;;;5069626;28;19929;-62
2023/08/28 12:49:28;;;;;;;;;;;;;;;;;;5057810;28;19921;-62
2023/08/28 12:51:54;;;;;;;;;;;;;;;;;;5066430;28;20007;-62
2023/08/28 12:54:21;;;;;;;;;;;;;;;;;;5064560;28;19927;-62
2023/08/28 12:56:47;;;;;;;;;;;;;;;;;;5064110;28;19920;-62
2023/08/28 12:59:13;;;;;;;;;;;;;;;;;;5067897;28;19924;-62
2023/08/28 13:01:39;;;;;;;;;;;;;;;;;;5067771;28;20007;-62
2023/08/28 13:04:05;;;;;;;;;;;;;;;;;;5054555;28;20597;-62
2023/08/28 13:06:31;;;;;;;;;;;;;;;;;;5051386;28;19928;-62
2023/08/28 13:08:57;;;;;;;;;;;;;;;;;;5065582;28;19924;-62
2023/08/28 13:11:23;;;;;;;;;;;;;;;;;;5061550;28;20534;-62
2023/08/28 13:13:49;;;;;;;;;;;;;;;;;;5063889;28;19928;-62
2023/08/28 13:16:14;;;;;;;;;;;;;;;;;;5063703;28;19929;-62
2023/08/28 13:18:40;;;;;;;;;;;;;;;;;;5059392;28;20413;-62
2023/08/28 13:21:07;;;;;;;;;;;;;;;;;;5057788;28;20266;-62
2023/08/28 13:23:33;;;;;;;;;;;;;;;;;;5068473;28;19971;-62
2023/08/28 13:25:59;;;;;;;;;;;;;;;;;;5064791;28;19928;-62
2023/08/28 13:28:25;;;;;;;;;;;;;;;;;;5070142;28;19982;-62
2023/08/28 13:30:51;;;;;;;;;;;;;;;;;;5040304;28;19962;-62
2023/08/28 13:33:17;;;;;;;;;;;;;;;;;;5062763;28;19931;-62
2023/08/28 13:35:43;;;;;;;;;;;;;;;;;;5071221;28;19920;-62
2023/08/28 13:38:09;;;;;;;;;;;;;;;;;;5065878;28;19928;-62
2023/08/28 13:40:35;;;;;;;;;;;;;;;;;;5065259;28;19968;-62
2023/08/28 13:43:04;;;;;;;;;;;;;;;;;;5073173;28;19970;-62
2023/08/28 13:45:30;;;;;;;;;;;;;;;;;;5064073;28;19931;-62
2023/08/28 13:47:55;;;;;;;;;;;;;;;;;;5072397;28;19925;-62
2023/08/28 13:50:21;;;;;;;;;;;;;;;;;;5053179;28;19920;-62
2023/08/28 13:52:47;;;;;;;;;;;;;;;;;;5053629;28;19925;-62
2023/08/28 13:55:13;;;;;;;;;;;;;;;;;;5071794;28;19967;-62
2023/08/28 13:57:39;;;;;;;;;;;;;;;;;;5073291;28;20342;-62
2023/08/28 14:00:11;;;;;;;;;;;;;;;;;;5074362;28;20349;-61
2023/08/28 14:02:38;;;;;;;;;;;;;;;;;;5071475;28;19952;-60
2023/08/28 14:05:04;;;;;;;;;;;;;;;;;;5038625;28;19920;-60
2023/08/28 14:07:30;;;;;;;;;;;;;;;;;;5073663;28;20278;-60
2023/08/28 14:09:56;;;;;;;;;;;;;;;;;;5074185;28;19924;-61
2023/08/28 14:12:23;;;;;;;;;;;;;;;;;;5073548;28;20354;-61
2023/08/28 14:14:49;;;;;;;;;;;;;;;;;;5071237;28;19931;-60
2023/08/28 14:17:15;;;;;;;;;;;;;;;;;;5073563;28;19924;-60
2023/08/28 14:19:41;;;;;;;;;;;;;;;;;;5073528;28;20290;-60
2023/08/28 14:22:07;;;;;;;;;;;;;;;;;;5073750;28;20027;-61
2023/08/28 14:24:33;;;;;;;;;;;;;;;;;;5073648;28;20021;-60
2023/08/28 14:26:59;;;;;;;;;;;;;;;;;;5073447;28;19924;-60
2023/08/28 14:29:25;;;;;;;;;;;;;;;;;;5073690;28;19931;-61
2023/08/28 14:31:51;;;;;;;;;;;;;;;;;;5073503;28;19925;-61
2023/08/28 14:34:17;;;;;;;;;;;;;;;;;;5073485;28;20400;-61
2023/08/28 14:36:43;;;;;;;;;;;;;;;;;;5061095;28;19935;-61
2023/08/28 14:39:09;;;;;;;;;;;;;;;;;;5072580;28;19931;-61
2023/08/28 14:41:35;;;;;;;;;;;;;;;;;;5073159;28;20048;-61
2023/08/28 14:44:01;;;;;;;;;;;;;;;;;;5055331;28;20038;-61
2023/08/28 14:46:27;;;;;;;;;;;;;;;;;;5073253;28;19925;-61
2023/08/28 14:48:53;;;;;;;;;;;;;;;;;;5073273;28;19934;-61
2023/08/28 14:51:19;;;;;;;;;;;;;;;;;;5072754;28;20362;-61
2023/08/28 14:53:45;;;;;;;;;;;;;;;;;;5072732;28;20461;-61
2023/08/28 14:56:10;;;;;;;;;;;;;;;;;;5073317;28;20007;-60
2023/08/28 14:58:36;;;;;;;;;;;;;;;;;;5072915;28;19924;-60
2023/08/28 15:01:03;;;;;;;;;;;;;;;;;;5060433;28;19947;-60
2023/08/28 15:03:29;;;;;;;;;;;;;;;;;;5052627;28;19928;-61
2023/08/28 15:05:55;;;;;;;;;;;;;;;;;;5052437;28;20001;-60
2023/08/28 15:08:21;;;;;;;;;;;;;;;;;;5052531;28;19925;-60
2023/08/28 15:10:47;;;;;;;;;;;;;;;;;;5057442;28;19921;-61
2023/08/28 15:13:13;;;;;;;;;;;;;;;;;;5066750;28;19928;-61
2023/08/28 15:15:38;;;;;;;;;;;;;;;;;;5070275;28;20655;-61
2023/08/28 15:18:04;;;;;;;;;;;;;;;;;;5070209;28;19977;-61
2023/08/28 15:20:30;;;;;;;;;;;;;;;;;;5065437;28;19921;-62
2023/08/28 15:22:56;;;;;;;;;;;;;;;;;;5056132;28;19939;-62
2023/08/28 15:25:22;;;;;;;;;;;;;;;;;;5070109;28;19924;-62
2023/08/28 15:27:48;;;;;;;;;;;;;;;;;;5065684;28;19932;-62
2023/08/28 15:30:14;;;;;;;;;;;;;;;;;;5055084;28;19929;-62
2023/08/28 15:32:40;;;;;;;;;;;;;;;;;;5055521;28;20374;-62
2023/08/28 15:35:06;;;;;;;;;;;;;;;;;;5059663;28;19931;-61
2023/08/28 15:37:31;;;;;;;;;;;;;;;;;;5054339;28;20022;-61
2023/08/28 15:39:57;;;;;;;;;;;;;;;;;;5056821;28;19921;-62
2023/08/28 15:42:23;;;;;;;;;;;;;;;;;;5055974;28;19924;-62
2023/08/28 15:44:49;;;;;;;;;;;;;;;;;;5057619;28;20553;-61
2023/08/28 15:47:15;;;;;;;;;;;;;;;;;;5050988;28;20347;-62
2023/08/28 15:49:41;;;;;;;;;;;;;;;;;;5053614;28;19932;-61
2023/08/28 15:52:07;;;;;;;;;;;;;;;;;;5051740;28;19964;-62
2023/08/28 15:54:33;;;;;;;;;;;;;;;;;;5055496;28;19927;-61
2023/08/28 15:56:59;;;;;;;;;;;;;;;;;;5064479;28;19930;-61
2023/08/28 15:59:25;;;;;;;;;;;;;;;;;;5062783;28;20300;-61
2023/08/28 16:01:51;;;;;;;;;;;;;;;;;;5067702;28;19948;-61
2023/08/28 16:04:17;;;;;;;;;;;;;;;;;;5067300;28;19928;-61
2023/08/28 16:06:43;;;;;;;;;;;;;;;;;;5050828;28;20011;-61
2023/08/28 16:09:09;;;;;;;;;;;;;;;;;;5066916;28;19925;-61
2023/08/28 16:11:35;;;;;;;;;;;;;;;;;;5047653;28;19928;-62
2023/08/28 16:14:01;;;;;;;;;;;;;;;;;;5069269;28;19978;-61
2023/08/28 16:16:27;;;;;;;;;;;;;;;;;;5048653;28;20546;-62
2023/08/28 16:18:53;;;;;;;;;;;;;;;;;;5066009;28;19943;-61
2023/08/28 16:21:19;;;;;;;;;;;;;;;;;;5070589;28;19924;-61
2023/08/28 16:23:45;;;;;;;;;;;;;;;;;;5071421;28;19933;-62
2023/08/28 16:26:11;;;;;;;;;;;;;;;;;;5067995;28;19977;-62
2023/08/28 16:28:37;;;;;;;;;;;;;;;;;;5068282;28;19970;-61
2023/08/28 16:31:03;;;;;;;;;;;;;;;;;;5052100;28;19962;-62
2023/08/28 16:33:29;;;;;;;;;;;;;;;;;;5051681;28;19920;-61
2023/08/28 16:35:55;;;;;;;;;;;;;;;;;;5070249;28;19930;-61
2023/08/28 16:38:21;;;;;;;;;;;;;;;;;;5058105;28;20020;-62